Worcester, MA

7:09 AM EST on January 28, 2015 (GMT -0500)
Thornton Rd. | Change Station
CLOSE
Current Station
Personal Weather Station
Location: Worcester, MA
Elevation: 656 ft
Nearby Weather Stations

Elev 656 ft 42.30 °N, 71.79 °W | Updated 4 seconds ago

Partly Cloudy
Partly Cloudy
9.5 °F
Feels Like -4 °F
N
9.2
Wind Variable Wind from WNW
Gusts 13.0 mph

Today
High -- | Low -- °F
--% Chance of Precip.
Yesterday
High -- | Low -- °F
Precip. -- in
7:04 AM 4:56 PM
Waxing Gibbous, 64% visible
Pressure 29.86 in
Visibility 10.0 miles
Clouds Overcast 3600 ft
Windchill -4 °F
Dew Point -36 °F
Humidity 10%
Rainfall 0.00 in
Snow Depth Not available.
UV 0 out of 12
Pollen .10 out of 12
Air Quality Not available.
Flu Activity Not available.
METAR KORH 281154Z 30018G25KT 10SM OVC036 M13/M18 A2979 RMK AO2 SLP111 60000 70013 T11331178 11128 21139 53033 $

More Conditions Fewer Conditions

Pressure 29.86 in
Visibility 10.0 miles
Clouds Overcast 3600 ft
Windchill -4 °F
Dew Point -36 °F
Humidity 10%
Rainfall 0.00 in
Snow Depth Not available.
UV 0 out of 12
Pollen .10 out of 12
Air Quality Not available.
Flu Activity Not available.
METAR KORH 281154Z 30018G25KT 10SM OVC036 M13/M18 A2979 RMK AO2 SLP111 60000 70013 T11331178 11128 21139 53033 $

More Conditions Fewer Conditions

10-Day Weather Forecast

Almanac

Astronomy

Jan. 28, 2015 Rise Set
Actual Time
Civil Twilight
Nautical Twilight
Astronomical Twilight
Moon
Length of Visible Light
Length of Day
Tomorrow will be .
, % of the Moon is Illuminated

Today's Extremes

State Highs State Lows

Community

WunderPhotos

Upload Photos

1,791,127 photos uploaded!

WunderBlogs® & News

Nearby

Air Quality

  Air Quality AQ Index Pollutant
Not available.

Snow Depth

Station Depth Elevation

Earthquake Activity

City Distance Mag. Time & Date
Minimum magnitude displayed is 2.5.

Coastal Water Temperatures

Place Temperature

Nearby Weather Stations